sensor_id;sensor_type;location;lat;lon;timestamp;temperature;humidity
17998;DHT22;9124;48.144;17.098;2023-06-19T00:03:16;18.70;83.30
17998;DHT22;9124;48.144;17.098;2023-06-19T00:07:42;18.60;84.60
17998;DHT22;9124;48.144;17.098;2023-06-19T00:12:08;18.40;85.50
17998;DHT22;9124;48.144;17.098;2023-06-19T00:16:35;18.30;86.70
17998;DHT22;9124;48.144;17.098;2023-06-19T00:21:01;18.20;88.00
17998;DHT22;9124;48.144;17.098;2023-06-19T00:25:28;18.10;89.00
17998;DHT22;9124;48.144;17.098;2023-06-19T00:29:54;18.10;89.80
17998;DHT22;9124;48.144;17.098;2023-06-19T00:34:29;18.10;90.20
17998;DHT22;9124;48.144;17.098;2023-06-19T00:38:56;18.20;90.50
17998;DHT22;9124;48.144;17.098;2023-06-19T00:43:22;18.10;91.00
17998;DHT22;9124;48.144;17.098;2023-06-19T00:47:50;18.20;91.00
17998;DHT22;9124;48.144;17.098;2023-06-19T00:52:16;18.30;91.10
17998;DHT22;9124;48.144;17.098;2023-06-19T00:57:09;18.30;91.10
17998;DHT22;9124;48.144;17.098;2023-06-19T01:01:45;18.30;91.20
17998;DHT22;9124;48.144;17.098;2023-06-19T01:06:26;18.40;91.30
17998;DHT22;9124;48.144;17.098;2023-06-19T01:10:56;18.40;91.40
17998;DHT22;9124;48.144;17.098;2023-06-19T01:21:36;18.40;91.60
17998;DHT22;9124;48.144;17.098;2023-06-19T01:26:03;18.40;91.60
17998;DHT22;9124;48.144;17.098;2023-06-19T01:30:30;18.50;91.70
17998;DHT22;9124;48.144;17.098;2023-06-19T01:41:16;18.50;91.70
17998;DHT22;9124;48.144;17.098;2023-06-19T01:45:43;18.50;91.70
17998;DHT22;9124;48.144;17.098;2023-06-19T01:50:10;18.40;91.90
17998;DHT22;9124;48.144;17.098;2023-06-19T01:54:37;18.40;92.10
17998;DHT22;9124;48.144;17.098;2023-06-19T01:59:03;18.50;92.10
17998;DHT22;9124;48.144;17.098;2023-06-19T02:03:29;18.50;92.10
17998;DHT22;9124;48.144;17.098;2023-06-19T02:07:56;18.50;92.20
17998;DHT22;9124;48.144;17.098;2023-06-19T02:12:23;18.50;92.40
17998;DHT22;9124;48.144;17.098;2023-06-19T02:16:49;18.40;92.50
17998;DHT22;9124;48.144;17.098;2023-06-19T02:21:16;18.30;92.70
17998;DHT22;9124;48.144;17.098;2023-06-19T02:25:42;18.30;93.00
17998;DHT22;9124;48.144;17.098;2023-06-19T02:30:10;18.30;93.20
17998;DHT22;9124;48.144;17.098;2023-06-19T02:34:45;18.30;93.40
17998;DHT22;9124;48.144;17.098;2023-06-19T02:39:11;18.20;93.60
17998;DHT22;9124;48.144;17.098;2023-06-19T02:43:48;18.20;93.90
17998;DHT22;9124;48.144;17.098;2023-06-19T02:48:15;18.20;94.00
17998;DHT22;9124;48.144;17.098;2023-06-19T02:52:42;18.20;94.20
17998;DHT22;9124;48.144;17.098;2023-06-19T02:57:08;18.10;94.50
17998;DHT22;9124;48.144;17.098;2023-06-19T03:01:35;18.00;94.80
17998;DHT22;9124;48.144;17.098;2023-06-19T03:06:02;18.00;95.10
17998;DHT22;9124;48.144;17.098;2023-06-19T03:10:54;18.00;95.30
17998;DHT22;9124;48.144;17.098;2023-06-19T03:15:20;18.00;95.50
17998;DHT22;9124;48.144;17.098;2023-06-19T03:20:14;18.00;95.60
17998;DHT22;9124;48.144;17.098;2023-06-19T03:24:50;18.10;95.90
17998;DHT22;9124;48.144;17.098;2023-06-19T03:35:40;18.20;96.00
17998;DHT22;9124;48.144;17.098;2023-06-19T03:40:09;18.20;96.00
17998;DHT22;9124;48.144;17.098;2023-06-19T03:45:07;18.30;96.10
17998;DHT22;9124;48.144;17.098;2023-06-19T03:49:34;18.40;96.10
17998;DHT22;9124;48.144;17.098;2023-06-19T03:54:00;18.40;96.00
17998;DHT22;9124;48.144;17.098;2023-06-19T03:58:37;18.50;96.00
17998;DHT22;9124;48.144;17.098;2023-06-19T04:03:04;18.70;95.80
17998;DHT22;9124;48.144;17.098;2023-06-19T04:07:31;18.80;95.60
17998;DHT22;9124;48.144;17.098;2023-06-19T04:11:58;18.90;95.30
17998;DHT22;9124;48.144;17.098;2023-06-19T04:16:24;19.00;95.10
17998;DHT22;9124;48.144;17.098;2023-06-19T04:20:51;19.00;94.80
17998;DHT22;9124;48.144;17.098;2023-06-19T04:25:17;19.10;94.90
17998;DHT22;9124;48.144;17.098;2023-06-19T04:29:44;19.20;94.30
17998;DHT22;9124;48.144;17.098;2023-06-19T04:34:10;19.40;94.10
17998;DHT22;9124;48.144;17.098;2023-06-19T04:38:37;19.50;93.80
17998;DHT22;9124;48.144;17.098;2023-06-19T04:43:03;19.60;93.50
17998;DHT22;9124;48.144;17.098;2023-06-19T04:47:57;19.70;93.10
17998;DHT22;9124;48.144;17.098;2023-06-19T04:52:23;19.90;92.80
17998;DHT22;9124;48.144;17.098;2023-06-19T04:56:49;20.00;92.30
17998;DHT22;9124;48.144;17.098;2023-06-19T05:01:16;20.20;92.10
17998;DHT22;9124;48.144;17.098;2023-06-19T05:05:43;20.40;91.50
17998;DHT22;9124;48.144;17.098;2023-06-19T05:17:00;20.70;90.60
17998;DHT22;9124;48.144;17.098;2023-06-19T05:21:33;21.00;90.10
17998;DHT22;9124;48.144;17.098;2023-06-19T05:25:59;21.20;88.50
17998;DHT22;9124;48.144;17.098;2023-06-19T05:36:38;22.40;86.20
17998;DHT22;9124;48.144;17.098;2023-06-19T05:41:05;23.00;83.30
17998;DHT22;9124;48.144;17.098;2023-06-19T05:45:32;23.30;80.10
17998;DHT22;9124;48.144;17.098;2023-06-19T05:49:59;23.70;77.20
17998;DHT22;9124;48.144;17.098;2023-06-19T05:54:26;23.80;75.10
17998;DHT22;9124;48.144;17.098;2023-06-19T05:58:53;23.80;74.00
17998;DHT22;9124;48.144;17.098;2023-06-19T06:03:20;23.90;72.90
17998;DHT22;9124;48.144;17.098;2023-06-19T06:07:47;24.10;71.90
17998;DHT22;9124;48.144;17.098;2023-06-19T06:12:13;24.40;70.80
17998;DHT22;9124;48.144;17.098;2023-06-19T06:22:08;24.50;68.70
17998;DHT22;9124;48.144;17.098;2023-06-19T06:27:00;24.80;67.60
17998;DHT22;9124;48.144;17.098;2023-06-19T06:31:26;24.70;67.00
17998;DHT22;9124;48.144;17.098;2023-06-19T06:35:57;24.80;66.70
17998;DHT22;9124;48.144;17.098;2023-06-19T06:40:24;25.10;65.90
17998;DHT22;9124;48.144;17.098;2023-06-19T06:44:50;25.10;65.30
17998;DHT22;9124;48.144;17.098;2023-06-19T06:49:35;25.30;64.90
17998;DHT22;9124;48.144;17.098;2023-06-19T06:54:03;25.70;64.70
17998;DHT22;9124;48.144;17.098;2023-06-19T06:58:36;26.00;63.60
17998;DHT22;9124;48.144;17.098;2023-06-19T07:09:22;26.70;62.20
17998;DHT22;9124;48.144;17.098;2023-06-19T07:13:49;27.40;60.80
17998;DHT22;9124;48.144;17.098;2023-06-19T07:18:24;28.50;59.60
17998;DHT22;9124;48.144;17.098;2023-06-19T07:22:51;31.30;58.20
17998;DHT22;9124;48.144;17.098;2023-06-19T07:27:27;36.00;52.10
17998;DHT22;9124;48.144;17.098;2023-06-19T07:31:55;40.40;46.70
17998;DHT22;9124;48.144;17.098;2023-06-19T07:36:21;42.30;39.80
17998;DHT22;9124;48.144;17.098;2023-06-19T07:41:13;44.00;36.90
17998;DHT22;9124;48.144;17.098;2023-06-19T07:45:58;45.00;35.80
17998;DHT22;9124;48.144;17.098;2023-06-19T07:50:51;45.50;32.90
17998;DHT22;9124;48.144;17.098;2023-06-19T07:55:17;45.70;32.00
17998;DHT22;9124;48.144;17.098;2023-06-19T07:59:43;46.20;30.50
17998;DHT22;9124;48.144;17.098;2023-06-19T08:04:11;46.90;30.10
17998;DHT22;9124;48.144;17.098;2023-06-19T08:08:37;46.40;29.50
17998;DHT22;9124;48.144;17.098;2023-06-19T08:18:46;46.80;29.20
17998;DHT22;9124;48.144;17.098;2023-06-19T08:23:21;45.80;29.10
17998;DHT22;9124;48.144;17.098;2023-06-19T08:34:09;46.70;28.50
17998;DHT22;9124;48.144;17.098;2023-06-19T08:38:36;46.70;28.20
17998;DHT22;9124;48.144;17.098;2023-06-19T08:43:02;47.10;28.10
17998;DHT22;9124;48.144;17.098;2023-06-19T08:47:30;47.20;27.90
17998;DHT22;9124;48.144;17.098;2023-06-19T08:51:58;46.70;28.10
17998;DHT22;9124;48.144;17.098;2023-06-19T08:56:24;46.10;28.10
17998;DHT22;9124;48.144;17.098;2023-06-19T09:00:50;46.00;28.40
17998;DHT22;9124;48.144;17.098;2023-06-19T09:05:19;46.40;28.20
17998;DHT22;9124;48.144;17.098;2023-06-19T09:09:46;46.30;28.10
17998;DHT22;9124;48.144;17.098;2023-06-19T09:14:13;46.50;28.10
17998;DHT22;9124;48.144;17.098;2023-06-19T09:18:47;46.80;27.90
